createdAt,value
2023-05-27T00:00:38.588Z,54.46
2023-05-27T00:03:27.586Z,54.72
2023-05-27T00:05:57.505Z,54.87
2023-05-27T00:08:27.350Z,55.00
2023-05-27T00:10:56.856Z,55.14
2023-05-27T00:13:25.990Z,55.25
2023-05-27T00:15:55.230Z,55.46
2023-05-27T00:18:24.736Z,55.55
2023-05-27T00:20:54.022Z,55.31
2023-05-27T00:23:23.936Z,55.32
2023-05-27T00:25:53.087Z,55.74
2023-05-27T00:28:22.374Z,55.77
2023-05-27T00:30:52.037Z,55.67
2023-05-27T00:33:21.159Z,55.40
2023-05-27T00:35:50.738Z,55.04
2023-05-27T00:38:20.069Z,55.20
2023-05-27T00:40:52.812Z,55.21
2023-05-27T00:43:21.763Z,55.57
2023-05-27T00:45:51.322Z,55.84
2023-05-27T00:48:21.818Z,55.89
2023-05-27T00:50:51.079Z,56.19
2023-05-27T00:53:21.869Z,56.27
2023-05-27T00:55:56.028Z,56.21
2023-05-27T00:58:25.949Z,56.20
2023-05-27T01:00:55.870Z,56.31
2023-05-27T01:03:25.477Z,56.05
2023-05-27T01:06:02.242Z,55.83
2023-05-27T01:09:07.443Z,56.03
2023-05-27T01:11:43.750Z,56.53
2023-05-27T01:14:15.425Z,56.41
2023-05-27T01:16:48.720Z,56.43
2023-05-27T01:19:32.692Z,56.25
2023-05-27T01:22:03.280Z,56.10
2023-05-27T01:24:33.045Z,56.21
2023-05-27T01:27:04.625Z,56.12
2023-05-27T01:29:34.002Z,56.33
2023-05-27T01:32:03.064Z,56.76
2023-05-27T01:34:42.341Z,56.79
2023-05-27T01:37:15.420Z,56.76
2023-05-27T01:39:45.725Z,56.95
2023-05-27T01:42:16.533Z,57.07
2023-05-27T01:44:45.628Z,57.29
2023-05-27T01:47:14.445Z,57.54
2023-05-27T01:49:43.533Z,57.37
2023-05-27T01:52:12.425Z,57.15
2023-05-27T01:54:42.310Z,57.28
2023-05-27T01:57:11.300Z,57.34
2023-05-27T01:59:40.902Z,57.78
2023-05-27T02:02:09.932Z,58.10
2023-05-27T02:04:38.867Z,58.16
2023-05-27T02:07:07.908Z,58.57
2023-05-27T02:09:37.984Z,59.12
2023-05-27T02:12:07.876Z,59.63
2023-05-27T02:14:40.037Z,59.73
2023-05-27T02:17:09.595Z,59.56
2023-05-27T02:19:38.645Z,59.80
2023-05-27T02:22:07.677Z,59.89
2023-05-27T02:24:36.809Z,60.00
2023-05-27T02:27:07.330Z,60.15
2023-05-27T02:29:35.957Z,59.94
2023-05-27T02:32:05.284Z,60.07
2023-05-27T02:34:38.923Z,60.30
2023-05-27T02:37:08.360Z,60.72
2023-05-27T02:39:37.342Z,60.51
2023-05-27T02:42:07.155Z,60.54
2023-05-27T02:44:36.150Z,60.34
2023-05-27T02:47:05.753Z,60.37
2023-05-27T02:49:34.862Z,60.55
2023-05-27T02:52:04.386Z,60.05
2023-05-27T02:54:33.669Z,59.41
2023-05-27T02:57:03.155Z,59.21
2023-05-27T02:59:32.108Z,59.73
2023-05-27T03:02:00.887Z,60.18
2023-05-27T03:04:30.281Z,60.67
2023-05-27T03:06:59.614Z,60.80
2023-05-27T03:09:29.206Z,61.05
2023-05-27T03:11:58.585Z,61.42
2023-05-27T03:14:27.751Z,61.71
2023-05-27T03:16:57.214Z,61.61
2023-05-27T03:19:26.884Z,61.62
2023-05-27T03:21:57.710Z,61.57
2023-05-27T03:24:27.030Z,61.82
2023-05-27T03:26:56.098Z,61.61
2023-05-27T03:29:25.947Z,61.05
2023-05-27T03:31:55.373Z,60.69
2023-05-27T03:34:24.975Z,60.78
2023-05-27T03:36:53.907Z,61.03
2023-05-27T03:39:22.944Z,61.09
2023-05-27T03:41:51.870Z,61.10
2023-05-27T03:44:21.206Z,61.24
2023-05-27T03:46:50.302Z,61.65
2023-05-27T03:49:19.202Z,62.01
2023-05-27T03:51:48.755Z,61.99
2023-05-27T03:54:18.146Z,61.67
2023-05-27T03:56:46.956Z,61.79
2023-05-27T03:59:16.555Z,62.27
2023-05-27T04:01:46.890Z,62.06
2023-05-27T04:04:16.847Z,61.68
2023-05-27T04:06:45.996Z,61.73
2023-05-27T04:09:14.959Z,61.85
2023-05-27T04:11:44.279Z,61.99
2023-05-27T04:14:13.163Z,61.69
2023-05-27T04:16:43.099Z,61.54
2023-05-27T04:19:12.322Z,61.49
2023-05-27T04:21:41.962Z,61.47
2023-05-27T04:24:11.231Z,61.42
2023-05-27T04:26:42.484Z,61.27
2023-05-27T04:29:13.584Z,61.34
2023-05-27T04:31:43.871Z,61.35
2023-05-27T04:34:12.987Z,61.87
2023-05-27T04:36:42.694Z,61.76
2023-05-27T04:39:13.168Z,61.44
2023-05-27T04:41:42.888Z,61.25
2023-05-27T04:44:11.989Z,61.24
2023-05-27T04:46:42.303Z,61.28
2023-05-27T04:49:11.864Z,61.01
2023-05-27T04:51:41.455Z,60.93
2023-05-27T04:54:10.542Z,60.83
2023-05-27T04:56:40.295Z,61.09
2023-05-27T04:59:09.799Z,61.19
2023-05-27T05:02:00.930Z,60.97
2023-05-27T05:04:30.622Z,60.73
2023-05-27T05:06:59.725Z,60.11
2023-05-27T05:09:28.954Z,59.95
2023-05-27T05:11:58.194Z,60.01
2023-05-27T05:14:27.501Z,60.03
2023-05-27T05:16:57.464Z,59.97
2023-05-27T05:19:27.276Z,59.69
2023-05-27T05:21:56.828Z,59.80
2023-05-27T05:24:26.192Z,59.65
2023-05-27T05:26:55.285Z,59.05
2023-05-27T05:29:24.970Z,58.80
2023-05-27T05:31:54.924Z,58.70
2023-05-27T05:34:25.002Z,58.50
2023-05-27T05:36:54.341Z,58.39
2023-05-27T05:39:24.206Z,58.53
2023-05-27T05:41:53.696Z,58.05
2023-05-27T05:44:25.372Z,57.56
2023-05-27T05:46:55.044Z,57.43
2023-05-27T05:49:24.477Z,57.10
2023-05-27T05:51:53.835Z,56.97
2023-05-27T05:54:24.008Z,56.39
2023-05-27T05:56:54.223Z,56.44
2023-05-27T05:59:24.340Z,56.88
2023-05-27T06:01:54.423Z,57.17
2023-05-27T06:04:24.207Z,57.25
2023-05-27T06:06:54.371Z,57.41
2023-05-27T06:09:26.614Z,57.10
2023-05-27T06:11:55.997Z,56.37
2023-05-27T06:14:25.907Z,55.68
2023-05-27T06:16:55.334Z,55.17
2023-05-27T06:19:24.432Z,54.27
2023-05-27T06:21:53.657Z,53.33
2023-05-27T06:24:23.299Z,52.99
2023-05-27T06:26:52.443Z,52.72
2023-05-27T06:29:21.702Z,52.35
2023-05-27T06:31:51.156Z,52.43
2023-05-27T06:34:20.423Z,52.37
2023-05-27T06:36:50.564Z,52.22
2023-05-27T06:39:20.165Z,51.87
2023-05-27T06:41:49.220Z,51.91
2023-05-27T06:44:18.496Z,51.23
2023-05-27T06:46:47.637Z,50.43
2023-05-27T06:49:16.671Z,50.14
2023-05-27T06:51:45.906Z,50.48
2023-05-27T06:54:15.212Z,50.46
2023-05-27T06:56:44.346Z,50.10
2023-05-27T06:59:13.697Z,49.78
2023-05-27T07:01:43.093Z,49.21
2023-05-27T07:04:12.427Z,48.82
2023-05-27T07:06:41.788Z,48.21
2023-05-27T07:09:12.675Z,47.73
2023-05-27T07:11:42.383Z,47.96
2023-05-27T07:14:11.758Z,47.98
2023-05-27T07:16:41.078Z,45.87
2023-05-27T07:19:10.071Z,44.96
2023-05-27T07:21:39.373Z,43.32
2023-05-27T07:24:08.656Z,42.42
2023-05-27T07:26:38.018Z,41.63
2023-05-27T07:29:07.374Z,40.47
2023-05-27T07:31:36.482Z,39.44
2023-05-27T07:34:05.678Z,38.95
2023-05-27T07:36:34.906Z,38.21
2023-05-27T07:39:04.389Z,37.43
2023-05-27T07:41:35.204Z,37.31
2023-05-27T07:44:04.220Z,36.51
2023-05-27T07:46:33.944Z,36.07
2023-05-27T07:49:03.535Z,35.34
2023-05-27T07:51:33.458Z,34.72
2023-05-27T07:54:02.518Z,34.02
2023-05-27T07:56:31.743Z,34.08
2023-05-27T07:59:01.256Z,33.38
2023-05-27T08:01:34.085Z,32.70
2023-05-27T08:04:16.273Z,31.99
2023-05-27T08:06:53.403Z,31.95
2023-05-27T08:09:23.233Z,31.82
2023-05-27T08:11:52.456Z,31.72
2023-05-27T08:14:23.562Z,31.10
2023-05-27T08:16:53.298Z,30.93
2023-05-27T08:19:23.240Z,30.14
2023-05-27T08:21:52.752Z,30.45
2023-05-27T08:24:23.347Z,30.93
2023-05-27T08:26:52.513Z,30.57
2023-05-27T08:29:21.606Z,30.08
2023-05-27T08:31:53.440Z,29.76
2023-05-27T08:34:23.247Z,29.71
2023-05-27T08:36:52.340Z,29.36
2023-05-27T08:39:22.010Z,28.48
2023-05-27T08:41:51.268Z,28.32
2023-05-27T08:44:23.189Z,28.09
2023-05-27T08:46:52.871Z,27.76
2023-05-27T08:49:22.369Z,27.81
2023-05-27T08:51:54.610Z,27.73
2023-05-27T08:54:24.251Z,27.29
2023-05-27T08:56:57.423Z,27.24
2023-05-27T08:59:26.942Z,27.08
2023-05-27T09:01:58.114Z,26.68
2023-05-27T09:04:28.299Z,27.30
2023-05-27T09:06:57.934Z,26.90
2023-05-27T09:09:28.605Z,26.90
2023-05-27T09:12:02.266Z,26.16
2023-05-27T09:14:31.950Z,25.67
2023-05-27T09:17:08.526Z,25.39
2023-05-27T09:19:38.026Z,25.16
2023-05-27T09:22:07.638Z,24.70
2023-05-27T09:24:37.418Z,24.71
2023-05-27T09:27:06.846Z,25.09
2023-05-27T09:29:42.364Z,24.82
2023-05-27T09:32:12.019Z,24.05
2023-05-27T09:34:42.988Z,24.07
2023-05-27T09:37:19.086Z,24.57
2023-05-27T09:39:50.620Z,24.61
2023-05-27T09:42:22.547Z,24.58
2023-05-27T09:44:52.037Z,24.28
2023-05-27T09:47:24.515Z,23.77
2023-05-27T09:49:55.715Z,23.86
2023-05-27T09:52:26.382Z,24.16
2023-05-27T09:54:58.880Z,24.13
2023-05-27T09:57:29.252Z,23.90
2023-05-27T10:00:02.653Z,23.84
2023-05-27T10:02:34.781Z,23.98
2023-05-27T10:05:09.677Z,24.15
2023-05-27T10:07:49.703Z,23.95
2023-05-27T10:10:30.855Z,23.48
2023-05-27T10:13:01.715Z,23.23
2023-05-27T10:15:33.083Z,23.11
2023-05-27T10:18:07.785Z,23.09
2023-05-27T10:20:39.681Z,22.99
2023-05-27T10:23:27.104Z,22.84
2023-05-27T10:26:09.984Z,22.60
2023-05-27T10:28:42.750Z,22.56
2023-05-27T10:31:16.592Z,22.51
2023-05-27T10:33:49.054Z,22.85
2023-05-27T10:36:23.862Z,22.85
2023-05-27T10:39:05.879Z,22.57
2023-05-27T10:41:45.517Z,22.61
2023-05-27T10:44:15.414Z,22.54
2023-05-27T10:46:46.014Z,22.03
2023-05-27T10:49:17.151Z,21.26
2023-05-27T10:51:50.962Z,21.07
2023-05-27T10:54:29.048Z,21.38
2023-05-27T10:57:00.857Z,20.74
2023-05-27T10:59:47.302Z,20.29
2023-05-27T11:02:18.376Z,20.13
2023-05-27T11:04:50.998Z,20.67
2023-05-27T11:07:22.328Z,21.20
2023-05-27T11:09:58.134Z,21.03
2023-05-27T11:12:29.312Z,20.45
2023-05-27T11:14:59.889Z,19.69
2023-05-27T11:17:30.323Z,19.81
2023-05-27T11:20:00.855Z,19.71
2023-05-27T11:22:33.101Z,19.30
2023-05-27T11:25:05.536Z,19.56
2023-05-27T11:27:37.350Z,19.52
2023-05-27T11:30:14.789Z,19.24
2023-05-27T11:32:48.814Z,18.77
2023-05-27T11:35:20.357Z,18.78
2023-05-27T11:37:53.953Z,18.59
2023-05-27T11:40:23.537Z,18.52
2023-05-27T11:42:54.509Z,18.54
2023-05-27T11:45:25.232Z,18.44
2023-05-27T11:47:56.283Z,18.11
2023-05-27T11:50:29.053Z,17.90
2023-05-27T11:53:00.021Z,17.71
2023-05-27T11:55:31.769Z,17.71
2023-05-27T11:58:01.089Z,17.97
2023-05-27T12:00:30.931Z,17.89
2023-05-27T12:03:00.892Z,17.80
2023-05-27T12:05:34.753Z,17.88
2023-05-27T12:08:05.140Z,18.45
2023-05-27T12:10:34.156Z,18.69
2023-05-27T12:13:07.825Z,17.97
2023-05-27T12:15:37.223Z,17.61
2023-05-27T12:18:08.122Z,17.38
2023-05-27T12:20:37.862Z,18.03
2023-05-27T12:23:08.059Z,17.85
2023-05-27T12:25:38.314Z,18.25
2023-05-27T12:28:11.985Z,17.83
2023-05-27T12:30:42.585Z,18.15
2023-05-27T12:33:13.074Z,18.38
2023-05-27T12:35:42.684Z,18.44
2023-05-27T12:38:12.486Z,18.54
2023-05-27T12:40:41.781Z,18.14
2023-05-27T12:43:11.005Z,18.00
2023-05-27T12:45:40.556Z,18.27
2023-05-27T12:48:09.807Z,18.37
2023-05-27T12:50:40.034Z,18.51
2023-05-27T12:53:11.351Z,18.01
2023-05-27T12:55:40.935Z,17.59
2023-05-27T12:58:10.663Z,17.83
2023-05-27T13:00:40.903Z,18.25
2023-05-27T13:03:12.321Z,18.21
2023-05-27T13:05:42.053Z,17.49
2023-05-27T13:08:11.622Z,17.80
2023-05-27T13:10:42.701Z,18.11
2023-05-27T13:13:12.675Z,18.23
2023-05-27T13:15:43.464Z,17.85
2023-05-27T13:18:13.495Z,17.22
2023-05-27T13:20:42.954Z,17.02
2023-05-27T13:23:12.792Z,16.94
2023-05-27T13:25:41.644Z,17.23
2023-05-27T13:28:11.339Z,17.04
2023-05-27T13:30:42.163Z,17.21
2023-05-27T13:33:11.512Z,17.61
2023-05-27T13:35:40.754Z,17.90
2023-05-27T13:38:14.144Z,17.76
2023-05-27T13:40:43.504Z,17.98
2023-05-27T13:43:12.786Z,18.64
2023-05-27T13:45:42.059Z,18.62
2023-05-27T13:48:11.429Z,18.47
2023-05-27T13:50:40.480Z,17.99
2023-05-27T13:53:09.712Z,17.94
2023-05-27T13:55:39.122Z,18.17
2023-05-27T13:58:09.046Z,18.26
2023-05-27T14:00:38.114Z,18.04
2023-05-27T14:03:07.201Z,17.72
2023-05-27T14:05:37.544Z,17.25
2023-05-27T14:08:06.978Z,17.39
2023-05-27T14:10:36.710Z,17.56
2023-05-27T14:13:06.614Z,18.08
2023-05-27T14:15:36.812Z,17.77
2023-05-27T14:18:07.468Z,18.15
2023-05-27T14:20:37.366Z,18.25
2023-05-27T14:23:11.886Z,18.08
2023-05-27T14:25:41.964Z,18.92
2023-05-27T14:28:12.488Z,18.84
2023-05-27T14:30:42.142Z,19.33
2023-05-27T14:33:11.699Z,19.34
2023-05-27T14:35:42.528Z,19.12
2023-05-27T14:38:14.681Z,20.03
2023-05-27T14:40:45.469Z,20.25
2023-05-27T14:43:15.173Z,20.69
2023-05-27T14:45:44.483Z,21.03
2023-05-27T14:48:13.889Z,21.14
2023-05-27T14:50:43.825Z,21.47
2023-05-27T14:53:13.617Z,21.29
2023-05-27T14:55:42.746Z,21.47
2023-05-27T14:58:12.246Z,21.39
2023-05-27T15:00:43.310Z,21.70
2023-05-27T15:03:12.918Z,21.87
2023-05-27T15:05:42.982Z,21.34
2023-05-27T15:08:17.076Z,21.03
2023-05-27T15:10:47.326Z,21.02
2023-05-27T15:13:16.770Z,21.69
2023-05-27T15:15:46.977Z,21.83
2023-05-27T15:18:16.503Z,21.46
2023-05-27T15:20:46.390Z,21.43
2023-05-27T15:23:15.672Z,21.72
2023-05-27T15:25:45.247Z,21.29
2023-05-27T15:28:14.679Z,21.57
2023-05-27T15:30:44.229Z,21.56
2023-05-27T15:33:14.435Z,21.70
2023-05-27T15:35:45.200Z,21.96
2023-05-27T15:38:14.898Z,21.86
2023-05-27T15:40:46.040Z,21.65
2023-05-27T15:43:17.075Z,21.88
2023-05-27T15:46:02.828Z,21.74
2023-05-27T15:48:33.978Z,22.02
2023-05-27T15:51:03.673Z,22.34
2023-05-27T15:53:34.341Z,22.35
2023-05-27T15:56:04.203Z,22.37
2023-05-27T15:58:33.899Z,21.98
2023-05-27T16:01:03.987Z,22.06
2023-05-27T16:03:33.599Z,21.71
2023-05-27T16:06:07.860Z,21.68
2023-05-27T16:08:39.650Z,21.32
2023-05-27T16:11:08.986Z,20.87
2023-05-27T16:13:39.483Z,21.29
2023-05-27T16:16:09.613Z,21.52
2023-05-27T16:18:39.742Z,21.81
2023-05-27T16:21:10.060Z,21.97
2023-05-27T16:23:39.953Z,21.97
2023-05-27T16:26:09.545Z,21.83
2023-05-27T16:28:40.283Z,22.29
2023-05-27T16:31:09.601Z,22.29
2023-05-27T16:33:39.309Z,22.46
2023-05-27T16:36:09.199Z,22.46
2023-05-27T16:38:38.495Z,22.42
2023-05-27T16:41:07.981Z,22.78
2023-05-27T16:43:37.211Z,22.73
2023-05-27T16:46:06.662Z,22.99
2023-05-27T16:48:35.581Z,23.08
2023-05-27T16:51:05.293Z,23.18
2023-05-27T16:53:34.995Z,22.88
2023-05-27T16:56:04.894Z,23.07
2023-05-27T16:58:34.429Z,23.31
2023-05-27T17:01:03.633Z,22.88
2023-05-27T17:03:33.105Z,22.63
2023-05-27T17:06:03.326Z,22.65
2023-05-27T17:08:35.030Z,22.56
2023-05-27T17:11:04.414Z,22.72
2023-05-27T17:13:34.266Z,22.82
2023-05-27T17:16:03.634Z,22.90
2023-05-27T17:18:34.254Z,23.28
2023-05-27T17:21:04.745Z,23.10
2023-05-27T17:23:34.212Z,23.32
2023-05-27T17:26:04.094Z,23.37
2023-05-27T17:28:33.885Z,23.69
2023-05-27T17:31:03.324Z,23.92
2023-05-27T17:33:33.740Z,23.81
2023-05-27T17:36:03.995Z,24.16
2023-05-27T17:38:33.977Z,24.75
2023-05-27T17:41:05.034Z,24.69
2023-05-27T17:43:35.072Z,25.12
2023-05-27T17:46:04.904Z,25.17
2023-05-27T17:48:34.674Z,25.51
2023-05-27T17:51:04.021Z,25.74
2023-05-27T17:53:37.001Z,25.82
2023-05-27T17:56:08.108Z,26.23
2023-05-27T17:58:37.846Z,26.93
2023-05-27T18:01:07.360Z,27.87
2023-05-27T18:03:37.084Z,28.30
2023-05-27T18:06:09.315Z,28.48
2023-05-27T18:08:38.788Z,28.94
2023-05-27T18:11:08.648Z,29.16
2023-05-27T18:13:38.541Z,29.40
2023-05-27T18:16:07.457Z,29.39
2023-05-27T18:18:36.658Z,29.66
2023-05-27T18:21:06.626Z,30.13
2023-05-27T18:23:36.174Z,30.68
2023-05-27T18:26:05.274Z,30.95
2023-05-27T18:28:34.712Z,30.50
2023-05-27T18:31:04.312Z,30.28
2023-05-27T18:33:33.747Z,30.00
2023-05-27T18:36:03.001Z,29.60
2023-05-27T18:38:32.675Z,29.35
2023-05-27T18:41:02.207Z,29.34
2023-05-27T18:43:31.805Z,29.48
2023-05-27T18:46:01.200Z,30.05
2023-05-27T18:48:32.436Z,30.47
2023-05-27T18:51:03.133Z,30.74
2023-05-27T18:53:32.594Z,30.86
2023-05-27T18:56:01.965Z,31.55
2023-05-27T18:58:31.874Z,32.69
2023-05-27T19:01:01.747Z,32.56
2023-05-27T19:03:31.642Z,32.36
2023-05-27T19:06:01.332Z,32.48
2023-05-27T19:08:30.755Z,32.39
2023-05-27T19:11:00.449Z,33.55
2023-05-27T19:13:30.046Z,33.77
2023-05-27T19:15:59.706Z,34.02
2023-05-27T19:18:29.457Z,34.51
2023-05-27T19:20:59.604Z,35.13
2023-05-27T19:23:29.488Z,35.45
2023-05-27T19:25:59.143Z,36.03
2023-05-27T19:28:29.071Z,36.49
2023-05-27T19:30:58.526Z,36.80
2023-05-27T19:33:27.815Z,36.87
2023-05-27T19:35:58.765Z,36.76
2023-05-27T19:38:27.876Z,37.00
2023-05-27T19:40:58.526Z,37.42
2023-05-27T19:43:27.994Z,37.31
2023-05-27T19:45:57.501Z,36.94
2023-05-27T19:48:27.013Z,36.63
2023-05-27T19:50:57.730Z,36.52
2023-05-27T19:53:31.678Z,36.82
2023-05-27T19:56:03.901Z,37.18
2023-05-27T19:58:34.992Z,36.94
2023-05-27T20:01:05.028Z,37.39
2023-05-27T20:03:34.196Z,37.60
2023-05-27T20:06:03.778Z,38.25
2023-05-27T20:08:32.886Z,38.50
2023-05-27T20:11:02.764Z,38.59
2023-05-27T20:13:32.367Z,38.77
2023-05-27T20:16:03.066Z,39.18
2023-05-27T20:18:32.618Z,39.27
2023-05-27T20:21:03.132Z,39.38
2023-05-27T20:23:32.669Z,39.72
2023-05-27T20:26:02.422Z,39.89
2023-05-27T20:28:32.492Z,40.38
2023-05-27T20:31:02.283Z,40.49
2023-05-27T20:33:32.156Z,40.44
2023-05-27T20:36:01.321Z,40.85
2023-05-27T20:38:33.349Z,41.27
2023-05-27T20:41:05.938Z,41.44
2023-05-27T20:43:37.645Z,41.30
2023-05-27T20:46:07.734Z,41.18
2023-05-27T20:48:37.093Z,41.14
2023-05-27T20:51:07.638Z,41.18
2023-05-27T20:53:37.652Z,41.26
2023-05-27T20:56:07.400Z,41.23
2023-05-27T20:58:36.668Z,41.41
2023-05-27T21:01:06.315Z,41.85
2023-05-27T21:03:35.655Z,42.33
2023-05-27T21:06:07.696Z,42.87
2023-05-27T21:08:37.086Z,43.08
2023-05-27T21:11:06.431Z,42.99
2023-05-27T21:13:35.760Z,42.95
2023-05-27T21:16:05.196Z,43.49
2023-05-27T21:18:36.014Z,43.63
2023-05-27T21:21:07.489Z,44.04
2023-05-27T21:23:37.122Z,44.13
2023-05-27T21:26:06.843Z,44.34
2023-05-27T21:28:36.135Z,44.04
2023-05-27T21:31:06.058Z,43.95
2023-05-27T21:33:35.157Z,44.06
2023-05-27T21:36:04.425Z,44.33
2023-05-27T21:38:34.935Z,44.64
2023-05-27T21:41:03.961Z,44.68
2023-05-27T21:43:33.364Z,44.95
2023-05-27T21:46:03.493Z,45.29
2023-05-27T21:48:33.425Z,45.70
2023-05-27T21:51:03.069Z,46.06
2023-05-27T21:53:32.547Z,46.35
2023-05-27T21:56:01.661Z,46.33
2023-05-27T21:58:30.860Z,46.42
2023-05-27T22:01:00.247Z,46.55
2023-05-27T22:03:29.861Z,46.81
2023-05-27T22:06:00.309Z,47.25
2023-05-27T22:08:31.175Z,46.96
2023-05-27T22:11:00.973Z,47.01
2023-05-27T22:13:30.347Z,46.75
2023-05-27T22:16:01.770Z,46.96
2023-05-27T22:18:31.678Z,46.91
2023-05-27T22:21:00.975Z,46.89
2023-05-27T22:23:30.473Z,46.98
2023-05-27T22:25:59.508Z,47.25
2023-05-27T22:28:29.033Z,47.37
2023-05-27T22:30:58.391Z,47.48
2023-05-27T22:33:30.165Z,47.48
2023-05-27T22:35:59.623Z,47.76
2023-05-27T22:38:29.132Z,48.16
2023-05-27T22:40:58.462Z,48.27
2023-05-27T22:43:27.444Z,48.28
2023-05-27T22:45:56.580Z,48.65
2023-05-27T22:48:26.369Z,48.73
2023-05-27T22:50:56.752Z,48.95
2023-05-27T22:53:25.877Z,48.89
2023-05-27T22:55:55.846Z,49.00
2023-05-27T22:58:25.407Z,48.75
2023-05-27T23:00:54.912Z,48.83
2023-05-27T23:03:24.144Z,49.07
2023-05-27T23:05:53.415Z,49.27
2023-05-27T23:08:23.061Z,49.77
2023-05-27T23:10:53.032Z,50.01
2023-05-27T23:13:22.310Z,50.16
2023-05-27T23:15:54.011Z,50.29
2023-05-27T23:18:23.522Z,50.56
2023-05-27T23:20:52.815Z,50.48
2023-05-27T23:23:21.774Z,50.38
2023-05-27T23:25:52.875Z,50.56
2023-05-27T23:28:21.965Z,50.56
2023-05-27T23:30:50.985Z,50.72
2023-05-27T23:33:21.242Z,50.88
2023-05-27T23:35:50.814Z,51.20
2023-05-27T23:38:20.973Z,51.28
2023-05-27T23:40:52.568Z,51.27
2023-05-27T23:43:22.189Z,51.46
2023-05-27T23:45:52.496Z,51.53
2023-05-27T23:48:22.491Z,51.82
2023-05-27T23:50:52.648Z,52.19
2023-05-27T23:53:21.910Z,52.61
2023-05-27T23:55:54.462Z,52.57
2023-05-27T23:58:23.281Z,52.01
